Terminal Aerodrome Forecast
Issued by NWS

Home | Current Version | Previous Version | Text Only | Print | Product List | Glossary Off
Versions: 1 2 3 4 5 6 7 8 9 10 11 12 13 14 15 16 17 18 19 20 21 22 23 24 25 26 27 28 29 30 31 32 33

000
FTUS43 KLOT 010300 AAB
TAFMDW
TAF AMD
KMDW 010313Z 0103/0124 18006KT 4SM -SN BR OVC025
      TEMPO 0103/0106 2SM -SN BR OVC015
     FM010800 20004KT P6SM OVC025
     FM011600 25008KT P6SM OVC030=

USA.gov is the U.S. government's official web portal to all federal, state and local government web resources and services.